X  Fermer Données météorologiques d'aviation de Metar     LIML Milano Linate Airport
Température
24°C Température
17°C Point de rosée
65% Humidité



Vitesse
10 KM/H
6 MPH
3 M/S
5 KTS



260°
Ouest
Conditions actuelles

Claire Claire
Pression 1014.92 (hPa) - 29.97 (inHg)
Visibilité 6.2 (mile) - 10 (km)
Aéroport
Code de l'aéroport LIML

Emplacement: Milano Linate Airport
Distance: 100 (km)

Metar:
LIML 102120Z AUTO 26005KT 220V290 9999 NCD 24/17 Q1015

Temps: 10-08-2020 23:20 CEST